sensor_id;sensor_type;location;lat;lon;timestamp;temperature;humidity
31733;DHT22;18312;51.486;7.144;2023-04-26T00:00:34;2.50;99.90
31733;DHT22;18312;51.486;7.144;2023-04-26T00:03:00;2.40;99.90
31733;DHT22;18312;51.486;7.144;2023-04-26T00:05:28;2.30;99.90
31733;DHT22;18312;51.486;7.144;2023-04-26T00:07:54;2.40;99.90
31733;DHT22;18312;51.486;7.144;2023-04-26T00:10:22;2.40;99.90
31733;DHT22;18312;51.486;7.144;2023-04-26T00:12:49;2.40;99.90
31733;DHT22;18312;51.486;7.144;2023-04-26T00:15:16;2.40;99.90
31733;DHT22;18312;51.486;7.144;2023-04-26T00:17:42;2.30;99.90
31733;DHT22;18312;51.486;7.144;2023-04-26T00:20:09;2.30;99.90
31733;DHT22;18312;51.486;7.144;2023-04-26T00:22:37;2.20;99.90
31733;DHT22;18312;51.486;7.144;2023-04-26T00:25:04;2.30;99.90
31733;DHT22;18312;51.486;7.144;2023-04-26T00:27:32;2.40;99.90
31733;DHT22;18312;51.486;7.144;2023-04-26T00:29:59;2.40;99.90
31733;DHT22;18312;51.486;7.144;2023-04-26T00:32:25;2.50;99.90
31733;DHT22;18312;51.486;7.144;2023-04-26T00:34:52;2.50;99.90
31733;DHT22;18312;51.486;7.144;2023-04-26T00:37:18;2.50;99.90
31733;DHT22;18312;51.486;7.144;2023-04-26T00:39:45;2.50;99.90
31733;DHT22;18312;51.486;7.144;2023-04-26T00:42:12;2.40;99.90
31733;DHT22;18312;51.486;7.144;2023-04-26T00:44:40;2.30;99.90
31733;DHT22;18312;51.486;7.144;2023-04-26T00:47:06;2.10;99.90
31733;DHT22;18312;51.486;7.144;2023-04-26T00:49:33;2.10;99.90
31733;DHT22;18312;51.486;7.144;2023-04-26T00:52:00;2.10;99.90
31733;DHT22;18312;51.486;7.144;2023-04-26T00:54:27;2.20;99.90
31733;DHT22;18312;51.486;7.144;2023-04-26T00:56:55;2.10;99.90
31733;DHT22;18312;51.486;7.144;2023-04-26T00:59:21;2.10;99.90
31733;DHT22;18312;51.486;7.144;2023-04-26T01:01:50;2.10;99.90
31733;DHT22;18312;51.486;7.144;2023-04-26T01:04:16;2.20;99.90
31733;DHT22;18312;51.486;7.144;2023-04-26T01:06:43;2.10;99.90
31733;DHT22;18312;51.486;7.144;2023-04-26T01:09:10;2.10;99.90
31733;DHT22;18312;51.486;7.144;2023-04-26T01:11:39;1.90;99.90
31733;DHT22;18312;51.486;7.144;2023-04-26T01:14:07;1.90;99.90
31733;DHT22;18312;51.486;7.144;2023-04-26T01:16:34;2.00;99.90
31733;DHT22;18312;51.486;7.144;2023-04-26T01:19:07;1.80;99.90
31733;DHT22;18312;51.486;7.144;2023-04-26T01:21:35;1.80;99.90
31733;DHT22;18312;51.486;7.144;2023-04-26T01:24:03;1.80;99.90
31733;DHT22;18312;51.486;7.144;2023-04-26T01:26:30;1.80;99.90
31733;DHT22;18312;51.486;7.144;2023-04-26T01:28:56;1.70;99.90
31733;DHT22;18312;51.486;7.144;2023-04-26T01:31:23;1.70;99.90
31733;DHT22;18312;51.486;7.144;2023-04-26T01:33:50;1.70;99.90
31733;DHT22;18312;51.486;7.144;2023-04-26T01:36:16;1.70;99.90
31733;DHT22;18312;51.486;7.144;2023-04-26T01:38:43;1.60;99.90
31733;DHT22;18312;51.486;7.144;2023-04-26T01:41:11;1.60;99.90
31733;DHT22;18312;51.486;7.144;2023-04-26T01:43:38;1.60;99.90
31733;DHT22;18312;51.486;7.144;2023-04-26T01:46:04;1.60;99.90
31733;DHT22;18312;51.486;7.144;2023-04-26T01:48:31;1.80;99.90
31733;DHT22;18312;51.486;7.144;2023-04-26T01:50:57;1.70;99.90
31733;DHT22;18312;51.486;7.144;2023-04-26T01:53:24;1.70;99.90
31733;DHT22;18312;51.486;7.144;2023-04-26T01:55:51;1.70;99.90
31733;DHT22;18312;51.486;7.144;2023-04-26T01:58:19;1.60;99.90
31733;DHT22;18312;51.486;7.144;2023-04-26T02:00:45;1.70;99.90
31733;DHT22;18312;51.486;7.144;2023-04-26T02:03:12;1.70;99.90
31733;DHT22;18312;51.486;7.144;2023-04-26T02:05:38;1.60;99.90
31733;DHT22;18312;51.486;7.144;2023-04-26T02:08:05;1.60;99.90
31733;DHT22;18312;51.486;7.144;2023-04-26T02:10:34;1.50;99.90
31733;DHT22;18312;51.486;7.144;2023-04-26T02:13:01;1.60;99.90
31733;DHT22;18312;51.486;7.144;2023-04-26T02:15:29;1.60;99.90
31733;DHT22;18312;51.486;7.144;2023-04-26T02:17:55;1.50;99.90
31733;DHT22;18312;51.486;7.144;2023-04-26T02:20:22;1.50;99.90
31733;DHT22;18312;51.486;7.144;2023-04-26T02:22:48;1.50;99.90
31733;DHT22;18312;51.486;7.144;2023-04-26T02:25:15;1.40;99.90
31733;DHT22;18312;51.486;7.144;2023-04-26T02:27:42;1.40;99.90
31733;DHT22;18312;51.486;7.144;2023-04-26T02:30:08;1.40;99.90
31733;DHT22;18312;51.486;7.144;2023-04-26T02:32:36;1.40;99.90
31733;DHT22;18312;51.486;7.144;2023-04-26T02:35:03;1.40;99.90
31733;DHT22;18312;51.486;7.144;2023-04-26T02:37:31;1.40;99.90
31733;DHT22;18312;51.486;7.144;2023-04-26T02:40:01;1.40;99.90
31733;DHT22;18312;51.486;7.144;2023-04-26T02:42:29;1.50;99.90
31733;DHT22;18312;51.486;7.144;2023-04-26T02:44:56;1.30;99.90
31733;DHT22;18312;51.486;7.144;2023-04-26T02:47:22;1.30;99.90
31733;DHT22;18312;51.486;7.144;2023-04-26T02:49:50;1.40;99.90
31733;DHT22;18312;51.486;7.144;2023-04-26T02:52:17;1.40;99.90
31733;DHT22;18312;51.486;7.144;2023-04-26T02:54:43;1.30;99.90
31733;DHT22;18312;51.486;7.144;2023-04-26T02:57:10;1.20;99.90
31733;DHT22;18312;51.486;7.144;2023-04-26T02:59:36;1.20;99.90
31733;DHT22;18312;51.486;7.144;2023-04-26T03:02:03;1.10;99.90
31733;DHT22;18312;51.486;7.144;2023-04-26T03:04:30;1.20;99.90
31733;DHT22;18312;51.486;7.144;2023-04-26T03:06:59;1.20;99.90
31733;DHT22;18312;51.486;7.144;2023-04-26T03:09:26;1.10;99.90
31733;DHT22;18312;51.486;7.144;2023-04-26T03:11:52;1.00;99.90
31733;DHT22;18312;51.486;7.144;2023-04-26T03:14:19;0.90;99.90
31733;DHT22;18312;51.486;7.144;2023-04-26T03:16:46;0.90;99.90
31733;DHT22;18312;51.486;7.144;2023-04-26T03:19:12;0.70;99.90
31733;DHT22;18312;51.486;7.144;2023-04-26T03:21:39;0.70;99.90
31733;DHT22;18312;51.486;7.144;2023-04-26T03:24:07;0.70;99.90
31733;DHT22;18312;51.486;7.144;2023-04-26T03:26:33;0.70;99.90
31733;DHT22;18312;51.486;7.144;2023-04-26T03:29:01;0.70;99.90
31733;DHT22;18312;51.486;7.144;2023-04-26T03:31:28;0.70;99.90
31733;DHT22;18312;51.486;7.144;2023-04-26T03:33:55;0.70;99.90
31733;DHT22;18312;51.486;7.144;2023-04-26T03:36:21;0.80;99.90
31733;DHT22;18312;51.486;7.144;2023-04-26T03:38:48;0.90;99.90
31733;DHT22;18312;51.486;7.144;2023-04-26T03:41:16;0.90;99.90
31733;DHT22;18312;51.486;7.144;2023-04-26T03:43:43;0.90;99.90
31733;DHT22;18312;51.486;7.144;2023-04-26T03:46:09;0.90;99.90
31733;DHT22;18312;51.486;7.144;2023-04-26T03:48:36;0.90;99.90
31733;DHT22;18312;51.486;7.144;2023-04-26T03:51:03;0.90;99.90
31733;DHT22;18312;51.486;7.144;2023-04-26T03:53:30;0.80;99.90
31733;DHT22;18312;51.486;7.144;2023-04-26T03:55:57;0.80;99.90
31733;DHT22;18312;51.486;7.144;2023-04-26T03:58:25;0.80;99.90
31733;DHT22;18312;51.486;7.144;2023-04-26T04:00:54;0.80;99.90
31733;DHT22;18312;51.486;7.144;2023-04-26T04:03:21;0.80;99.90
31733;DHT22;18312;51.486;7.144;2023-04-26T04:05:48;0.80;99.90
31733;DHT22;18312;51.486;7.144;2023-04-26T04:08:14;0.70;99.90
31733;DHT22;18312;51.486;7.144;2023-04-26T04:10:41;0.70;99.90
31733;DHT22;18312;51.486;7.144;2023-04-26T04:13:08;0.60;99.90
31733;DHT22;18312;51.486;7.144;2023-04-26T04:15:36;0.50;99.90
31733;DHT22;18312;51.486;7.144;2023-04-26T04:18:02;0.50;99.90
31733;DHT22;18312;51.486;7.144;2023-04-26T04:20:29;0.50;99.90
31733;DHT22;18312;51.486;7.144;2023-04-26T04:22:55;0.50;99.90
31733;DHT22;18312;51.486;7.144;2023-04-26T04:25:22;0.40;99.90
31733;DHT22;18312;51.486;7.144;2023-04-26T04:27:49;0.50;99.90
31733;DHT22;18312;51.486;7.144;2023-04-26T04:30:16;0.60;99.90
31733;DHT22;18312;51.486;7.144;2023-04-26T04:32:44;0.60;99.90
31733;DHT22;18312;51.486;7.144;2023-04-26T04:35:11;0.60;99.90
31733;DHT22;18312;51.486;7.144;2023-04-26T04:37:37;0.60;99.90
31733;DHT22;18312;51.486;7.144;2023-04-26T04:40:04;0.50;99.90
31733;DHT22;18312;51.486;7.144;2023-04-26T04:42:33;0.50;99.90
31733;DHT22;18312;51.486;7.144;2023-04-26T04:45:00;0.60;99.90
31733;DHT22;18312;51.486;7.144;2023-04-26T04:47:28;0.60;99.90
31733;DHT22;18312;51.486;7.144;2023-04-26T04:49:56;0.60;99.90
31733;DHT22;18312;51.486;7.144;2023-04-26T04:52:23;0.70;99.90
31733;DHT22;18312;51.486;7.144;2023-04-26T04:54:50;0.80;99.90
31733;DHT22;18312;51.486;7.144;2023-04-26T04:57:16;0.80;99.90
31733;DHT22;18312;51.486;7.144;2023-04-26T04:59:43;1.00;99.90
31733;DHT22;18312;51.486;7.144;2023-04-26T05:02:09;1.10;99.90
31733;DHT22;18312;51.486;7.144;2023-04-26T05:04:36;1.20;99.90
31733;DHT22;18312;51.486;7.144;2023-04-26T05:07:04;1.30;99.90
31733;DHT22;18312;51.486;7.144;2023-04-26T05:09:31;1.50;99.90
31733;DHT22;18312;51.486;7.144;2023-04-26T05:11:57;1.60;99.90
31733;DHT22;18312;51.486;7.144;2023-04-26T05:14:25;1.70;99.90
31733;DHT22;18312;51.486;7.144;2023-04-26T05:16:51;1.80;99.90
31733;DHT22;18312;51.486;7.144;2023-04-26T05:19:18;1.90;99.90
31733;DHT22;18312;51.486;7.144;2023-04-26T05:21:45;2.10;99.90
31733;DHT22;18312;51.486;7.144;2023-04-26T05:24:13;2.20;99.90
31733;DHT22;18312;51.486;7.144;2023-04-26T05:26:41;2.30;99.90
31733;DHT22;18312;51.486;7.144;2023-04-26T05:29:07;2.30;99.90
31733;DHT22;18312;51.486;7.144;2023-04-26T05:31:34;2.40;99.90
31733;DHT22;18312;51.486;7.144;2023-04-26T05:34:01;2.60;99.90
31733;DHT22;18312;51.486;7.144;2023-04-26T05:36:28;2.70;99.90
31733;DHT22;18312;51.486;7.144;2023-04-26T05:38:54;2.90;99.90
31733;DHT22;18312;51.486;7.144;2023-04-26T05:41:22;3.00;99.90
31733;DHT22;18312;51.486;7.144;2023-04-26T05:43:49;3.10;99.90
31733;DHT22;18312;51.486;7.144;2023-04-26T05:46:15;3.20;99.90
31733;DHT22;18312;51.486;7.144;2023-04-26T05:48:42;3.30;99.90
31733;DHT22;18312;51.486;7.144;2023-04-26T05:51:08;3.70;99.90
31733;DHT22;18312;51.486;7.144;2023-04-26T05:53:35;4.20;99.90
31733;DHT22;18312;51.486;7.144;2023-04-26T05:56:02;5.50;99.90
31733;DHT22;18312;51.486;7.144;2023-04-26T05:58:30;5.80;99.90
31733;DHT22;18312;51.486;7.144;2023-04-26T06:00:58;6.00;99.90
31733;DHT22;18312;51.486;7.144;2023-04-26T06:03:24;6.10;99.90
31733;DHT22;18312;51.486;7.144;2023-04-26T06:05:51;7.10;99.90
31733;DHT22;18312;51.486;7.144;2023-04-26T06:08:17;8.50;99.90
31733;DHT22;18312;51.486;7.144;2023-04-26T06:10:44;9.60;98.00
31733;DHT22;18312;51.486;7.144;2023-04-26T06:13:11;9.90;96.30
31733;DHT22;18312;51.486;7.144;2023-04-26T06:15:39;9.50;96.90
31733;DHT22;18312;51.486;7.144;2023-04-26T06:18:06;9.90;96.30
31733;DHT22;18312;51.486;7.144;2023-04-26T06:20:32;10.30;94.50
31733;DHT22;18312;51.486;7.144;2023-04-26T06:23:00;11.30;92.80
31733;DHT22;18312;51.486;7.144;2023-04-26T06:25:27;12.20;90.60
31733;DHT22;18312;51.486;7.144;2023-04-26T06:27:53;12.20;85.80
31733;DHT22;18312;51.486;7.144;2023-04-26T06:30:20;12.50;84.90
31733;DHT22;18312;51.486;7.144;2023-04-26T06:32:48;12.10;85.90
31733;DHT22;18312;51.486;7.144;2023-04-26T06:35:14;11.70;87.20
31733;DHT22;18312;51.486;7.144;2023-04-26T06:37:41;12.40;83.30
31733;DHT22;18312;51.486;7.144;2023-04-26T06:40:08;12.40;85.00
31733;DHT22;18312;51.486;7.144;2023-04-26T06:42:35;11.50;86.40
31733;DHT22;18312;51.486;7.144;2023-04-26T06:45:02;11.30;87.50
31733;DHT22;18312;51.486;7.144;2023-04-26T06:47:28;12.00;86.30
31733;DHT22;18312;51.486;7.144;2023-04-26T06:49:56;12.60;84.60
31733;DHT22;18312;51.486;7.144;2023-04-26T06:52:23;13.00;79.70
31733;DHT22;18312;51.486;7.144;2023-04-26T06:54:50;14.20;75.60
31733;DHT22;18312;51.486;7.144;2023-04-26T06:57:18;14.30;73.50
31733;DHT22;18312;51.486;7.144;2023-04-26T06:59:44;13.90;73.50
31733;DHT22;18312;51.486;7.144;2023-04-26T07:02:11;13.60;73.90
31733;DHT22;18312;51.486;7.144;2023-04-26T07:04:38;12.90;75.30
31733;DHT22;18312;51.486;7.144;2023-04-26T07:07:06;13.40;76.70
31733;DHT22;18312;51.486;7.144;2023-04-26T07:09:32;14.20;74.10
31733;DHT22;18312;51.486;7.144;2023-04-26T07:11:59;14.10;73.40
31733;DHT22;18312;51.486;7.144;2023-04-26T07:14:25;13.00;75.40
31733;DHT22;18312;51.486;7.144;2023-04-26T07:16:52;11.90;78.00
31733;DHT22;18312;51.486;7.144;2023-04-26T07:19:18;12.00;79.10
31733;DHT22;18312;51.486;7.144;2023-04-26T07:21:45;12.80;76.70
31733;DHT22;18312;51.486;7.144;2023-04-26T07:24:13;11.60;76.00
31733;DHT22;18312;51.486;7.144;2023-04-26T07:26:39;11.40;77.90
31733;DHT22;18312;51.486;7.144;2023-04-26T07:29:06;10.90;77.40
31733;DHT22;18312;51.486;7.144;2023-04-26T07:31:33;11.20;80.90
31733;DHT22;18312;51.486;7.144;2023-04-26T07:33:59;11.00;79.40
31733;DHT22;18312;51.486;7.144;2023-04-26T07:36:26;10.50;78.60
31733;DHT22;18312;51.486;7.144;2023-04-26T07:38:53;10.60;79.90
31733;DHT22;18312;51.486;7.144;2023-04-26T07:41:21;11.30;79.80
31733;DHT22;18312;51.486;7.144;2023-04-26T07:43:47;11.90;77.20
31733;DHT22;18312;51.486;7.144;2023-04-26T07:46:14;12.40;76.70
31733;DHT22;18312;51.486;7.144;2023-04-26T07:48:40;13.60;71.20
31733;DHT22;18312;51.486;7.144;2023-04-26T07:51:07;12.30;74.40
31733;DHT22;18312;51.486;7.144;2023-04-26T07:53:34;11.50;76.50
31733;DHT22;18312;51.486;7.144;2023-04-26T07:56:02;12.00;75.80
31733;DHT22;18312;51.486;7.144;2023-04-26T07:58:30;12.80;73.70
31733;DHT22;18312;51.486;7.144;2023-04-26T08:00:58;13.10;71.90
31733;DHT22;18312;51.486;7.144;2023-04-26T08:03:24;12.10;73.10
31733;DHT22;18312;51.486;7.144;2023-04-26T08:05:52;11.50;74.40
31733;DHT22;18312;51.486;7.144;2023-04-26T08:08:19;11.60;75.30
31733;DHT22;18312;51.486;7.144;2023-04-26T08:10:46;12.10;73.20
31733;DHT22;18312;51.486;7.144;2023-04-26T08:13:12;11.90;69.80
31733;DHT22;18312;51.486;7.144;2023-04-26T08:15:40;11.90;69.20
31733;DHT22;18312;51.486;7.144;2023-04-26T08:18:07;12.10;70.00
31733;DHT22;18312;51.486;7.144;2023-04-26T08:20:33;12.10;67.30
31733;DHT22;18312;51.486;7.144;2023-04-26T08:23:00;11.80;69.90
31733;DHT22;18312;51.486;7.144;2023-04-26T08:25:27;11.90;70.00
31733;DHT22;18312;51.486;7.144;2023-04-26T08:27:53;11.60;70.80
31733;DHT22;18312;51.486;7.144;2023-04-26T08:30:20;10.60;75.40
31733;DHT22;18312;51.486;7.144;2023-04-26T08:32:48;10.50;73.80
31733;DHT22;18312;51.486;7.144;2023-04-26T08:35:14;10.40;74.80
31733;DHT22;18312;51.486;7.144;2023-04-26T08:37:41;10.00;74.10
31733;DHT22;18312;51.486;7.144;2023-04-26T08:40:08;10.30;75.60
31733;DHT22;18312;51.486;7.144;2023-04-26T08:42:37;10.50;73.80
31733;DHT22;18312;51.486;7.144;2023-04-26T08:45:05;11.00;72.80
31733;DHT22;18312;51.486;7.144;2023-04-26T08:47:37;10.90;72.80
31733;DHT22;18312;51.486;7.144;2023-04-26T08:50:07;10.70;73.90
31733;DHT22;18312;51.486;7.144;2023-04-26T08:52:36;10.80;71.60
31733;DHT22;18312;51.486;7.144;2023-04-26T08:55:05;11.50;70.40
31733;DHT22;18312;51.486;7.144;2023-04-26T08:57:33;12.30;68.10
31733;DHT22;18312;51.486;7.144;2023-04-26T09:00:01;12.30;66.70
31733;DHT22;18312;51.486;7.144;2023-04-26T09:02:29;11.90;68.70
31733;DHT22;18312;51.486;7.144;2023-04-26T09:04:56;12.00;70.30
31733;DHT22;18312;51.486;7.144;2023-04-26T09:07:26;11.90;71.50
31733;DHT22;18312;51.486;7.144;2023-04-26T09:09:56;11.70;72.70
31733;DHT22;18312;51.486;7.144;2023-04-26T09:12:23;11.10;72.40
31733;DHT22;18312;51.486;7.144;2023-04-26T09:14:50;10.60;73.60
31733;DHT22;18312;51.486;7.144;2023-04-26T09:17:24;10.40;72.50
31733;DHT22;18312;51.486;7.144;2023-04-26T09:19:50;10.20;70.00
31733;DHT22;18312;51.486;7.144;2023-04-26T09:22:27;9.90;70.20
31733;DHT22;18312;51.486;7.144;2023-04-26T09:24:54;9.80;72.70
31733;DHT22;18312;51.486;7.144;2023-04-26T09:27:20;10.20;73.70
31733;DHT22;18312;51.486;7.144;2023-04-26T09:29:56;10.10;72.60
31733;DHT22;18312;51.486;7.144;2023-04-26T09:32:22;10.10;74.50
31733;DHT22;18312;51.486;7.144;2023-04-26T09:34:50;10.20;76.50
31733;DHT22;18312;51.486;7.144;2023-04-26T09:37:17;10.30;76.00
31733;DHT22;18312;51.486;7.144;2023-04-26T09:39:45;10.00;73.50
31733;DHT22;18312;51.486;7.144;2023-04-26T09:42:15;9.40;73.10
31733;DHT22;18312;51.486;7.144;2023-04-26T09:44:42;9.50;73.10
31733;DHT22;18312;51.486;7.144;2023-04-26T09:47:09;9.80;73.10
31733;DHT22;18312;51.486;7.144;2023-04-26T09:49:43;9.80;74.20
31733;DHT22;18312;51.486;7.144;2023-04-26T09:52:11;9.90;73.70
31733;DHT22;18312;51.486;7.144;2023-04-26T09:54:38;10.00;72.10
31733;DHT22;18312;51.486;7.144;2023-04-26T09:57:06;9.60;71.50
31733;DHT22;18312;51.486;7.144;2023-04-26T09:59:40;9.90;72.40
31733;DHT22;18312;51.486;7.144;2023-04-26T10:02:09;10.30;73.20
31733;DHT22;18312;51.486;7.144;2023-04-26T10:04:36;10.80;70.20
31733;DHT22;18312;51.486;7.144;2023-04-26T10:07:03;11.20;71.10
31733;DHT22;18312;51.486;7.144;2023-04-26T10:09:30;11.30;69.00
31733;DHT22;18312;51.486;7.144;2023-04-26T10:11:57;11.40;69.20
31733;DHT22;18312;51.486;7.144;2023-04-26T10:14:27;11.60;68.60
31733;DHT22;18312;51.486;7.144;2023-04-26T10:16:54;11.50;70.00
31733;DHT22;18312;51.486;7.144;2023-04-26T10:19:22;11.60;69.30
31733;DHT22;18312;51.486;7.144;2023-04-26T10:21:48;11.80;68.60
31733;DHT22;18312;51.486;7.144;2023-04-26T10:24:16;11.80;68.50
31733;DHT22;18312;51.486;7.144;2023-04-26T10:26:47;11.30;68.00
31733;DHT22;18312;51.486;7.144;2023-04-26T10:29:13;11.30;69.80
31733;DHT22;18312;51.486;7.144;2023-04-26T10:34:27;11.00;69.60
31733;DHT22;18312;51.486;7.144;2023-04-26T10:37:08;11.20;69.00
31733;DHT22;18312;51.486;7.144;2023-04-26T10:39:35;11.30;67.80
31733;DHT22;18312;51.486;7.144;2023-04-26T10:42:21;11.60;65.10
31733;DHT22;18312;51.486;7.144;2023-04-26T10:44:51;11.60;67.00
31733;DHT22;18312;51.486;7.144;2023-04-26T10:47:28;11.70;67.10
31733;DHT22;18312;51.486;7.144;2023-04-26T10:50:03;11.20;68.40
31733;DHT22;18312;51.486;7.144;2023-04-26T10:52:31;11.10;67.70
31733;DHT22;18312;51.486;7.144;2023-04-26T10:54:58;11.10;67.80
31733;DHT22;18312;51.486;7.144;2023-04-26T11:00:15;11.10;68.40
31733;DHT22;18312;51.486;7.144;2023-04-26T11:02:45;11.20;68.20
31733;DHT22;18312;51.486;7.144;2023-04-26T11:08:03;12.20;65.90
31733;DHT22;18312;51.486;7.144;2023-04-26T11:10:30;12.80;66.00
31733;DHT22;18312;51.486;7.144;2023-04-26T11:12:59;13.10;66.00
31733;DHT22;18312;51.486;7.144;2023-04-26T11:15:27;13.10;64.30
31733;DHT22;18312;51.486;7.144;2023-04-26T11:17:54;13.10;62.90
31733;DHT22;18312;51.486;7.144;2023-04-26T11:20:21;13.10;60.80
31733;DHT22;18312;51.486;7.144;2023-04-26T11:22:47;12.60;60.80
31733;DHT22;18312;51.486;7.144;2023-04-26T11:25:15;12.40;60.00
31733;DHT22;18312;51.486;7.144;2023-04-26T11:27:42;11.60;63.20
31733;DHT22;18312;51.486;7.144;2023-04-26T11:30:10;11.60;64.10
31733;DHT22;18312;51.486;7.144;2023-04-26T11:32:36;11.40;64.80
31733;DHT22;18312;51.486;7.144;2023-04-26T11:35:03;10.90;65.70
31733;DHT22;18312;51.486;7.144;2023-04-26T11:37:30;11.40;66.70
31733;DHT22;18312;51.486;7.144;2023-04-26T11:39:57;11.30;64.60
31733;DHT22;18312;51.486;7.144;2023-04-26T11:42:25;11.90;65.90
31733;DHT22;18312;51.486;7.144;2023-04-26T11:44:51;11.90;63.40
31733;DHT22;18312;51.486;7.144;2023-04-26T11:47:18;11.80;61.20
31733;DHT22;18312;51.486;7.144;2023-04-26T11:49:45;12.30;63.40
31733;DHT22;18312;51.486;7.144;2023-04-26T11:52:11;11.90;61.50
31733;DHT22;18312;51.486;7.144;2023-04-26T11:54:38;11.70;62.20
31733;DHT22;18312;51.486;7.144;2023-04-26T11:57:11;11.70;64.90
31733;DHT22;18312;51.486;7.144;2023-04-26T11:59:40;11.90;64.50
31733;DHT22;18312;51.486;7.144;2023-04-26T12:02:06;11.80;64.40
31733;DHT22;18312;51.486;7.144;2023-04-26T12:04:34;11.60;63.70
31733;DHT22;18312;51.486;7.144;2023-04-26T12:07:02;11.80;64.40
31733;DHT22;18312;51.486;7.144;2023-04-26T12:09:29;12.00;64.10
31733;DHT22;18312;51.486;7.144;2023-04-26T12:11:56;12.20;64.20
31733;DHT22;18312;51.486;7.144;2023-04-26T12:14:29;12.40;64.20
31733;DHT22;18312;51.486;7.144;2023-04-26T12:16:59;12.20;64.30
31733;DHT22;18312;51.486;7.144;2023-04-26T12:19:27;12.10;64.30
31733;DHT22;18312;51.486;7.144;2023-04-26T12:21:54;12.30;64.20
31733;DHT22;18312;51.486;7.144;2023-04-26T12:24:23;12.50;63.80
31733;DHT22;18312;51.486;7.144;2023-04-26T12:26:50;12.70;61.30
31733;DHT22;18312;51.486;7.144;2023-04-26T12:29:17;12.40;60.10
31733;DHT22;18312;51.486;7.144;2023-04-26T12:31:44;12.30;59.60
31733;DHT22;18312;51.486;7.144;2023-04-26T12:34:12;12.30;57.70
31733;DHT22;18312;51.486;7.144;2023-04-26T12:36:39;12.70;59.90
31733;DHT22;18312;51.486;7.144;2023-04-26T12:39:08;13.00;58.00
31733;DHT22;18312;51.486;7.144;2023-04-26T12:41:35;13.30;58.60
31733;DHT22;18312;51.486;7.144;2023-04-26T12:44:02;13.40;58.80
31733;DHT22;18312;51.486;7.144;2023-04-26T12:46:28;12.80;60.10
31733;DHT22;18312;51.486;7.144;2023-04-26T12:48:55;13.00;60.40
31733;DHT22;18312;51.486;7.144;2023-04-26T12:51:23;12.30;60.70
31733;DHT22;18312;51.486;7.144;2023-04-26T12:53:50;12.20;58.80
31733;DHT22;18312;51.486;7.144;2023-04-26T12:56:16;12.40;60.10
31733;DHT22;18312;51.486;7.144;2023-04-26T12:58:43;12.70;60.20
31733;DHT22;18312;51.486;7.144;2023-04-26T13:01:11;12.50;58.50
31733;DHT22;18312;51.486;7.144;2023-04-26T13:03:40;12.70;59.00
31733;DHT22;18312;51.486;7.144;2023-04-26T13:06:07;12.80;59.40
31733;DHT22;18312;51.486;7.144;2023-04-26T13:08:35;12.90;59.80
31733;DHT22;18312;51.486;7.144;2023-04-26T13:11:01;12.70;59.90
31733;DHT22;18312;51.486;7.144;2023-04-26T13:13:28;12.90;61.10
31733;DHT22;18312;51.486;7.144;2023-04-26T13:15:55;13.20;57.80
31733;DHT22;18312;51.486;7.144;2023-04-26T13:18:21;12.80;58.70
31733;DHT22;18312;51.486;7.144;2023-04-26T13:20:48;12.70;59.60
31733;DHT22;18312;51.486;7.144;2023-04-26T13:23:14;12.90;59.30
31733;DHT22;18312;51.486;7.144;2023-04-26T13:25:43;13.60;60.40
31733;DHT22;18312;51.486;7.144;2023-04-26T13:28:09;13.70;58.10
31733;DHT22;18312;51.486;7.144;2023-04-26T13:30:38;14.00;56.90
31733;DHT22;18312;51.486;7.144;2023-04-26T13:33:05;14.40;56.90
31733;DHT22;18312;51.486;7.144;2023-04-26T13:35:32;14.80;56.60
31733;DHT22;18312;51.486;7.144;2023-04-26T13:37:58;14.20;53.80
31733;DHT22;18312;51.486;7.144;2023-04-26T13:40:25;13.80;55.70
31733;DHT22;18312;51.486;7.144;2023-04-26T13:42:53;13.80;58.40
31733;DHT22;18312;51.486;7.144;2023-04-26T13:45:20;13.90;56.70
31733;DHT22;18312;51.486;7.144;2023-04-26T13:47:47;14.10;55.30
31733;DHT22;18312;51.486;7.144;2023-04-26T13:50:14;13.80;56.20
31733;DHT22;18312;51.486;7.144;2023-04-26T13:52:41;14.00;55.00
31733;DHT22;18312;51.486;7.144;2023-04-26T13:55:07;13.50;54.80
31733;DHT22;18312;51.486;7.144;2023-04-26T13:57:34;13.60;56.00
31733;DHT22;18312;51.486;7.144;2023-04-26T14:00:02;13.20;56.50
31733;DHT22;18312;51.486;7.144;2023-04-26T14:02:31;13.20;54.30
31733;DHT22;18312;51.486;7.144;2023-04-26T14:04:58;12.70;54.20
31733;DHT22;18312;51.486;7.144;2023-04-26T14:07:25;12.80;55.10
31733;DHT22;18312;51.486;7.144;2023-04-26T14:09:51;12.90;54.60
31733;DHT22;18312;51.486;7.144;2023-04-26T14:12:18;13.10;56.50
31733;DHT22;18312;51.486;7.144;2023-04-26T14:14:44;13.60;55.90
31733;DHT22;18312;51.486;7.144;2023-04-26T14:17:13;13.30;56.60
31733;DHT22;18312;51.486;7.144;2023-04-26T14:19:40;12.80;55.10
31733;DHT22;18312;51.486;7.144;2023-04-26T14:22:07;12.80;54.10
31733;DHT22;18312;51.486;7.144;2023-04-26T14:24:34;12.60;56.80
31733;DHT22;18312;51.486;7.144;2023-04-26T14:27:01;12.30;56.70
31733;DHT22;18312;51.486;7.144;2023-04-26T14:29:28;12.30;57.20
31733;DHT22;18312;51.486;7.144;2023-04-26T14:31:54;12.30;57.00
31733;DHT22;18312;51.486;7.144;2023-04-26T14:34:22;12.60;58.30
31733;DHT22;18312;51.486;7.144;2023-04-26T14:36:50;13.20;56.10
31733;DHT22;18312;51.486;7.144;2023-04-26T14:39:17;13.50;57.60
31733;DHT22;18312;51.486;7.144;2023-04-26T14:41:43;13.30;54.60
31733;DHT22;18312;51.486;7.144;2023-04-26T14:44:10;13.70;54.80
31733;DHT22;18312;51.486;7.144;2023-04-26T14:46:37;13.60;55.30
31733;DHT22;18312;51.486;7.144;2023-04-26T14:49:04;13.30;55.80
31733;DHT22;18312;51.486;7.144;2023-04-26T14:51:32;13.30;57.30
31733;DHT22;18312;51.486;7.144;2023-04-26T14:53:58;13.10;56.30
31733;DHT22;18312;51.486;7.144;2023-04-26T14:56:25;12.30;56.10
31733;DHT22;18312;51.486;7.144;2023-04-26T14:58:52;12.20;57.30
31733;DHT22;18312;51.486;7.144;2023-04-26T15:01:18;12.20;56.30
31733;DHT22;18312;51.486;7.144;2023-04-26T15:03:45;12.30;57.10
31733;DHT22;18312;51.486;7.144;2023-04-26T15:06:12;12.60;57.20
31733;DHT22;18312;51.486;7.144;2023-04-26T15:08:40;12.90;58.60
31733;DHT22;18312;51.486;7.144;2023-04-26T15:11:06;14.00;58.60
31733;DHT22;18312;51.486;7.144;2023-04-26T15:13:33;14.30;55.50
31733;DHT22;18312;51.486;7.144;2023-04-26T15:16:01;14.40;55.60
31733;DHT22;18312;51.486;7.144;2023-04-26T15:18:27;13.80;56.60
31733;DHT22;18312;51.486;7.144;2023-04-26T15:20:54;13.80;56.80
31733;DHT22;18312;51.486;7.144;2023-04-26T15:23:21;13.70;57.40
31733;DHT22;18312;51.486;7.144;2023-04-26T15:25:49;13.20;57.50
31733;DHT22;18312;51.486;7.144;2023-04-26T15:28:15;13.10;58.70
31733;DHT22;18312;51.486;7.144;2023-04-26T15:30:42;12.80;59.40
31733;DHT22;18312;51.486;7.144;2023-04-26T15:33:09;12.60;60.00
31733;DHT22;18312;51.486;7.144;2023-04-26T15:35:37;12.60;57.80
31733;DHT22;18312;51.486;7.144;2023-04-26T15:38:04;12.30;60.10
31733;DHT22;18312;51.486;7.144;2023-04-26T15:40:30;11.90;59.60
31733;DHT22;18312;51.486;7.144;2023-04-26T15:42:59;12.00;58.50
31733;DHT22;18312;51.486;7.144;2023-04-26T15:45:25;12.10;59.70